Time;durP1;ratioP1;P1;durP2;ratioP2;P2;SDS_P1;SDS_P2;PMS_P1;PMS_P2;Temp;Humidity;BMP_temperature;BMP_pressure;BME280_temperature;BME280_humidity;BME280_pressure;Samples;Min_cycle;Max_cycle;Signal;HPM_P1;HPM_P2
2021/04/06 00:00:08;;;;;;;;;;;22.70;99.90;;;;;;5051889;28;20350;-83
2021/04/06 00:02:36;;;;;;;;;;;22.70;99.90;;;;;;5051900;28;20050;-82
2021/04/06 00:05:05;;;;;;;;;;;22.80;99.90;;;;;;5056076;28;19916;-79
2021/04/06 00:07:32;;;;;;;;;;;22.80;99.90;;;;;;5057463;28;19909;-81
2021/04/06 00:10:01;;;;;;;;;;;22.90;99.90;;;;;;5057011;28;19909;-84
2021/04/06 00:12:28;;;;;;;;;;;23.00;99.90;;;;;;5057002;28;19955;-83
2021/04/06 00:14:56;;;;;;;;;;;23.00;99.90;;;;;;5057390;28;19919;-83
2021/04/06 00:17:23;;;;;;;;;;;23.10;99.90;;;;;;5057020;28;19908;-80
2021/04/06 00:19:53;;;;;;;;;;;23.10;99.90;;;;;;5057020;28;20007;-82
2021/04/06 00:22:20;;;;;;;;;;;23.00;99.90;;;;;;5056927;28;20359;-80
2021/04/06 00:24:51;;;;;;;;;;;23.10;99.90;;;;;;5056968;28;19912;-83
2021/04/06 00:27:21;;;;;;;;;;;23.00;99.90;;;;;;5055754;28;19916;-83
2021/04/06 00:29:50;;;;;;;;;;;23.00;99.90;;;;;;5056683;28;19927;-82
2021/04/06 00:32:19;;;;;;;;;;;23.10;99.90;;;;;;5068524;28;19924;-80
2021/04/06 00:34:46;;;;;;;;;;;23.10;99.90;;;;;;5074738;28;19909;-81
2021/04/06 00:37:16;;;;;;;;;;;23.10;99.90;;;;;;5056767;28;19909;-83
2021/04/06 00:39:43;;;;;;;;;;;23.20;99.90;;;;;;5055408;28;19913;-83
2021/04/06 00:42:14;;;;;;;;;;;23.30;99.90;;;;;;5056763;28;20009;-83
2021/04/06 00:44:48;;;;;;;;;;;23.50;99.90;;;;;;5056358;28;20378;-85
2021/04/06 00:47:15;;;;;;;;;;;23.70;99.90;;;;;;5056551;28;20351;-83
2021/04/06 00:49:43;;;;;;;;;;;23.90;99.90;;;;;;5065334;28;19913;-79
2021/04/06 00:52:11;;;;;;;;;;;24.10;99.90;;;;;;5066994;28;19909;-85
2021/04/06 00:54:37;;;;;;;;;;;24.20;99.90;;;;;;5056132;28;19963;-82
2021/04/06 00:57:06;;;;;;;;;;;24.30;99.90;;;;;;5055996;28;19919;-84
2021/04/06 00:59:34;;;;;;;;;;;24.40;99.90;;;;;;5057670;28;19913;-79
2021/04/06 01:02:04;;;;;;;;;;;24.50;99.90;;;;;;5078535;28;19913;-80
2021/04/06 01:04:36;;;;;;;;;;;24.50;99.90;;;;;;5062550;28;20049;-83
2021/04/06 01:07:08;;;;;;;;;;;24.50;99.90;;;;;;5055977;28;20279;-83
2021/04/06 01:09:34;;;;;;;;;;;24.60;99.90;;;;;;5055702;28;19912;-82
2021/04/06 01:12:02;;;;;;;;;;;24.80;99.90;;;;;;5056581;28;20279;-81
2021/04/06 01:14:29;;;;;;;;;;;25.00;99.90;;;;;;5055768;28;19920;-83
2021/04/06 01:16:56;;;;;;;;;;;25.30;99.90;;;;;;5054750;28;20306;-84
2021/04/06 01:19:23;;;;;;;;;;;25.50;99.90;;;;;;5056050;28;19909;-82
2021/04/06 01:21:50;;;;;;;;;;;25.80;99.90;;;;;;5055924;28;19913;-80
2021/04/06 01:24:19;;;;;;;;;;;25.90;99.90;;;;;;5056208;28;19963;-80
2021/04/06 01:26:47;;;;;;;;;;;26.70;99.90;;;;;;5055824;28;20489;-81
2021/04/06 01:29:14;;;;;;;;;;;26.90;99.90;;;;;;5055868;28;20001;-84
2021/04/06 01:31:41;;;;;;;;;;;27.30;99.90;;;;;;5055846;28;19913;-84
2021/04/06 01:34:08;;;;;;;;;;;27.00;99.90;;;;;;5055996;28;19999;-82
2021/04/06 01:36:35;;;;;;;;;;;27.10;99.90;;;;;;5055529;28;19916;-83
2021/04/06 01:39:03;;;;;;;;;;;26.80;99.90;;;;;;5055828;28;19913;-84
2021/04/06 01:41:30;;;;;;;;;;;26.20;99.90;;;;;;5055815;28;19928;-83
2021/04/06 01:43:57;;;;;;;;;;;25.90;99.90;;;;;;5055989;28;19916;-83
2021/04/06 01:46:56;;;;;;;;;;;25.80;99.90;;;;;;5055971;28;19912;-83
2021/04/06 01:49:17;;;;;;;;;;;25.70;99.90;;;;;;5056394;28;20356;-82
2021/04/06 01:51:44;;;;;;;;;;;25.90;99.90;;;;;;5055946;28;19920;-86
2021/04/06 01:54:12;;;;;;;;;;;25.70;99.90;;;;;;5055305;28;20329;-84
2021/04/06 01:57:19;;;;;;;;;;;25.70;99.90;;;;;;5055386;28;19913;-81
2021/04/06 01:59:41;;;;;;;;;;;25.70;99.90;;;;;;5054309;28;19920;-82
2021/04/06 02:02:09;;;;;;;;;;;25.60;99.90;;;;;;5055246;28;20426;-82
2021/04/06 02:04:36;;;;;;;;;;;25.40;99.90;;;;;;5054956;28;19958;-82
2021/04/06 02:07:05;;;;;;;;;;;25.30;99.90;;;;;;5055012;28;20016;-83
2021/04/06 02:09:32;;;;;;;;;;;25.40;99.90;;;;;;5055096;28;20011;-81
2021/04/06 02:11:59;;;;;;;;;;;25.30;99.90;;;;;;5055005;28;19909;-82
2021/04/06 02:14:26;;;;;;;;;;;25.30;99.90;;;;;;5054912;28;19987;-81
2021/04/06 02:16:52;;;;;;;;;;;25.30;99.90;;;;;;5055003;28;19909;-82
2021/04/06 02:19:27;;;;;;;;;;;25.20;99.90;;;;;;5054677;28;19909;-83
2021/04/06 02:22:01;;;;;;;;;;;25.20;99.90;;;;;;5054878;28;19913;-79
2021/04/06 02:24:32;;;;;;;;;;;25.10;99.90;;;;;;5054736;28;20322;-83
2021/04/06 02:27:18;;;;;;;;;;;25.10;99.90;;;;;;5054280;28;20363;-80
2021/04/06 02:29:50;;;;;;;;;;;25.00;99.90;;;;;;5054281;28;19920;-82
2021/04/06 02:32:23;;;;;;;;;;;25.00;99.90;;;;;;5054513;28;20003;-83
2021/04/06 02:34:52;;;;;;;;;;;25.10;99.90;;;;;;5054061;28;19916;-80
2021/04/06 02:37:24;;;;;;;;;;;25.10;99.90;;;;;;5054523;28;19909;-82
2021/04/06 02:39:52;;;;;;;;;;;24.90;99.90;;;;;;5054339;28;19917;-82
2021/04/06 02:42:25;;;;;;;;;;;24.80;99.90;;;;;;5054488;28;19916;-82
2021/04/06 02:45:18;;;;;;;;;;;24.80;99.90;;;;;;5054512;28;19932;-82
2021/04/06 02:47:49;;;;;;;;;;;24.80;99.90;;;;;;5054710;28;19913;-81
2021/04/06 02:50:26;;;;;;;;;;;24.80;99.90;;;;;;5054318;28;19916;-83
2021/04/06 02:52:53;;;;;;;;;;;24.80;99.90;;;;;;5054403;28;19909;-82
2021/04/06 02:55:21;;;;;;;;;;;24.60;99.90;;;;;;5053990;28;19908;-80
2021/04/06 02:57:49;;;;;;;;;;;24.50;99.90;;;;;;5054234;28;19909;-82
2021/04/06 03:00:33;;;;;;;;;;;24.50;99.90;;;;;;5054266;28;19917;-79
2021/04/06 03:03:01;;;;;;;;;;;24.40;99.90;;;;;;5054316;28;19978;-80
2021/04/06 03:05:28;;;;;;;;;;;24.20;99.90;;;;;;5053999;28;19909;-80
2021/04/06 03:07:55;;;;;;;;;;;24.00;99.90;;;;;;5053968;28;19912;-80
2021/04/06 03:10:22;;;;;;;;;;;23.80;99.90;;;;;;5054007;28;19916;-80
2021/04/06 03:12:49;;;;;;;;;;;23.90;99.90;;;;;;5053814;28;20449;-82
2021/04/06 03:15:27;;;;;;;;;;;23.80;99.90;;;;;;5053719;28;19913;-80
2021/04/06 03:17:55;;;;;;;;;;;23.80;99.90;;;;;;5053911;28;19909;-81
2021/04/06 03:20:22;;;;;;;;;;;23.90;99.90;;;;;;5053666;28;19919;-82
2021/04/06 03:22:50;;;;;;;;;;;23.90;99.90;;;;;;5053484;28;19909;-81
2021/04/06 03:25:17;;;;;;;;;;;24.00;99.90;;;;;;5053323;28;19916;-80
2021/04/06 03:27:45;;;;;;;;;;;24.20;99.90;;;;;;5053639;28;19909;-81
2021/04/06 03:30:12;;;;;;;;;;;24.30;99.90;;;;;;5053406;28;19921;-80
2021/04/06 03:32:40;;;;;;;;;;;24.40;99.90;;;;;;5053014;28;20011;-80
2021/04/06 03:35:07;;;;;;;;;;;24.50;99.90;;;;;;5053809;28;19913;-79
2021/04/06 03:37:35;;;;;;;;;;;24.60;99.90;;;;;;5054830;28;20326;-80
2021/04/06 03:40:02;;;;;;;;;;;24.60;99.90;;;;;;5052746;28;19917;-81
2021/04/06 03:42:29;;;;;;;;;;;24.60;99.90;;;;;;5053034;28;20023;-81
2021/04/06 03:45:06;;;;;;;;;;;24.70;99.90;;;;;;5053304;28;19989;-80
2021/04/06 03:47:55;;;;;;;;;;;24.80;99.90;;;;;;5053786;28;19940;-81
2021/04/06 03:50:54;;;;;;;;;;;24.80;99.90;;;;;;5055694;28;19909;-81
2021/04/06 03:53:22;;;;;;;;;;;24.70;99.90;;;;;;5062873;28;19909;-79
2021/04/06 03:56:03;;;;;;;;;;;24.60;99.90;;;;;;5053024;28;19908;-79
2021/04/06 03:58:34;;;;;;;;;;;24.50;99.90;;;;;;5053258;28;19915;-80
2021/04/06 04:01:01;;;;;;;;;;;24.50;99.90;;;;;;5053154;28;19939;-83
2021/04/06 04:03:29;;;;;;;;;;;24.60;99.90;;;;;;5053780;28;20352;-80
2021/04/06 04:05:55;;;;;;;;;;;24.50;99.90;;;;;;5053304;28;19932;-80
2021/04/06 04:08:22;;;;;;;;;;;24.60;99.90;;;;;;5053529;28;20268;-81
2021/04/06 04:10:50;;;;;;;;;;;24.50;99.90;;;;;;5053344;28;19909;-84
2021/04/06 04:13:17;;;;;;;;;;;24.40;99.90;;;;;;5053573;28;20378;-82
2021/04/06 04:15:43;;;;;;;;;;;24.40;99.90;;;;;;5053261;28;19909;-81
2021/04/06 04:18:11;;;;;;;;;;;24.50;99.90;;;;;;5053036;28;20385;-82
2021/04/06 04:20:37;;;;;;;;;;;24.50;99.90;;;;;;5052556;28;19960;-83
2021/04/06 04:23:04;;;;;;;;;;;24.50;99.90;;;;;;5052988;28;20371;-80
2021/04/06 04:25:32;;;;;;;;;;;24.40;99.90;;;;;;5052876;28;19909;-82
2021/04/06 04:27:58;;;;;;;;;;;24.30;99.90;;;;;;5059152;28;19964;-80
2021/04/06 04:30:40;;;;;;;;;;;24.30;99.90;;;;;;5063430;28;20426;-82
2021/04/06 04:33:07;;;;;;;;;;;24.20;99.90;;;;;;5053024;28;20366;-81
2021/04/06 04:35:34;;;;;;;;;;;24.20;99.90;;;;;;5053057;28;19916;-82
2021/04/06 04:38:01;;;;;;;;;;;24.20;99.90;;;;;;5052840;28;19916;-81
2021/04/06 04:40:28;;;;;;;;;;;24.20;99.90;;;;;;5052498;28;19917;-81
2021/04/06 04:42:55;;;;;;;;;;;24.20;99.90;;;;;;5052910;28;20332;-80
2021/04/06 04:45:22;;;;;;;;;;;24.20;99.90;;;;;;5052915;28;19962;-80
2021/04/06 04:47:49;;;;;;;;;;;24.20;99.90;;;;;;5052980;28;19913;-80
2021/04/06 04:50:16;;;;;;;;;;;24.30;99.90;;;;;;5053967;28;19912;-80
2021/04/06 04:52:46;;;;;;;;;;;24.30;99.90;;;;;;5055465;28;19931;-81
2021/04/06 04:55:14;;;;;;;;;;;24.30;99.90;;;;;;5056196;28;19908;-80
2021/04/06 04:57:41;;;;;;;;;;;24.30;99.90;;;;;;5056628;28;19909;-81
2021/04/06 05:00:08;;;;;;;;;;;24.20;99.90;;;;;;5056395;28;19920;-82
2021/04/06 05:02:35;;;;;;;;;;;24.20;99.90;;;;;;5056051;28;19916;-80
2021/04/06 05:05:01;;;;;;;;;;;24.20;99.90;;;;;;5056236;28;19955;-80
2021/04/06 05:07:28;;;;;;;;;;;24.20;99.90;;;;;;5057215;28;19918;-81
2021/04/06 05:09:55;;;;;;;;;;;24.10;99.90;;;;;;5056200;28;19917;-80
2021/04/06 05:12:21;;;;;;;;;;;24.00;99.90;;;;;;5057931;28;19928;-80
2021/04/06 05:14:48;;;;;;;;;;;24.00;99.90;;;;;;5070186;28;19916;-80
2021/04/06 05:17:15;;;;;;;;;;;24.00;99.90;;;;;;5059040;28;20279;-79
2021/04/06 05:19:42;;;;;;;;;;;24.10;99.90;;;;;;5056124;28;19913;-80
2021/04/06 05:22:09;;;;;;;;;;;24.10;99.90;;;;;;5055999;28;19909;-79
2021/04/06 05:24:36;;;;;;;;;;;24.10;99.90;;;;;;5055334;28;19913;-80
2021/04/06 05:27:03;;;;;;;;;;;24.10;99.90;;;;;;5056165;28;19912;-81
2021/04/06 05:29:29;;;;;;;;;;;24.00;99.90;;;;;;5055404;28;19959;-79
2021/04/06 05:31:56;;;;;;;;;;;23.90;99.90;;;;;;5056025;28;19909;-79
2021/04/06 05:34:23;;;;;;;;;;;24.00;99.90;;;;;;5054503;28;19912;-81
2021/04/06 05:36:49;;;;;;;;;;;24.00;99.90;;;;;;5055414;28;20280;-79
2021/04/06 05:39:16;;;;;;;;;;;24.00;99.90;;;;;;5055709;28;19913;-80
2021/04/06 05:41:44;;;;;;;;;;;23.90;99.90;;;;;;5055895;28;19965;-81
2021/04/06 05:44:11;;;;;;;;;;;23.90;99.90;;;;;;5055579;28;19909;-80
2021/04/06 05:46:39;;;;;;;;;;;23.90;99.90;;;;;;5054217;28;19909;-79
2021/04/06 05:49:08;;;;;;;;;;;23.90;99.90;;;;;;5071247;28;19943;-79
2021/04/06 05:51:36;;;;;;;;;;;23.90;99.90;;;;;;5072695;28;19924;-81
2021/04/06 05:54:03;;;;;;;;;;;23.90;99.90;;;;;;5055751;28;19909;-80
2021/04/06 05:56:29;;;;;;;;;;;23.90;99.90;;;;;;5055151;28;19909;-80
2021/04/06 05:58:58;;;;;;;;;;;23.90;99.90;;;;;;5055369;28;19963;-81
2021/04/06 06:01:28;;;;;;;;;;;23.90;99.90;;;;;;5053353;28;20406;-79
2021/04/06 06:03:55;;;;;;;;;;;23.90;99.90;;;;;;5054971;28;20003;-81
2021/04/06 06:06:22;;;;;;;;;;;23.80;99.90;;;;;;5055242;28;19916;-80
2021/04/06 06:08:55;;;;;;;;;;;23.80;99.90;;;;;;5054700;28;20232;-80
2021/04/06 06:11:21;;;;;;;;;;;23.70;99.90;;;;;;5055111;28;20000;-81
2021/04/06 06:13:48;;;;;;;;;;;23.60;99.90;;;;;;5054785;28;20366;-81
2021/04/06 06:16:21;;;;;;;;;;;23.50;99.90;;;;;;5054928;28;20260;-80
2021/04/06 06:18:52;;;;;;;;;;;23.40;99.90;;;;;;5054830;28;19955;-79
2021/04/06 06:21:22;;;;;;;;;;;23.30;99.90;;;;;;5054664;28;19916;-80
2021/04/06 06:23:48;;;;;;;;;;;23.30;99.90;;;;;;5054619;28;19909;-79
2021/04/06 06:26:16;;;;;;;;;;;23.40;99.90;;;;;;5054858;28;19917;-80
2021/04/06 06:29:02;;;;;;;;;;;23.40;99.90;;;;;;5054389;28;20009;-80
2021/04/06 06:31:38;;;;;;;;;;;23.50;99.90;;;;;;5053256;28;19929;-80
2021/04/06 06:34:22;;;;;;;;;;;23.50;99.90;;;;;;5054598;28;19920;-80
2021/04/06 06:37:09;;;;;;;;;;;23.60;99.90;;;;;;5054084;28;19954;-80
2021/04/06 06:39:37;;;;;;;;;;;23.50;99.90;;;;;;5056841;28;19909;-79
2021/04/06 06:42:08;;;;;;;;;;;23.50;99.90;;;;;;5054322;28;20360;-80
2021/04/06 06:44:35;;;;;;;;;;;23.60;99.90;;;;;;5053983;28;19913;-80
2021/04/06 06:47:03;;;;;;;;;;;23.50;99.90;;;;;;5054073;28;19944;-81
2021/04/06 06:49:40;;;;;;;;;;;23.40;99.90;;;;;;5054271;28;19913;-80
2021/04/06 06:52:09;;;;;;;;;;;23.30;99.90;;;;;;5054669;28;19909;-79
2021/04/06 06:54:39;;;;;;;;;;;23.30;99.90;;;;;;5054274;28;20367;-78
2021/04/06 06:57:06;;;;;;;;;;;23.20;99.90;;;;;;5054010;28;19909;-79
2021/04/06 06:59:37;;;;;;;;;;;23.30;99.90;;;;;;5053918;28;20376;-80
2021/04/06 07:02:22;;;;;;;;;;;23.20;99.90;;;;;;5054050;28;20390;-80
2021/04/06 07:04:49;;;;;;;;;;;23.20;99.90;;;;;;5056653;28;19909;-79
2021/04/06 07:07:16;;;;;;;;;;;23.10;99.90;;;;;;5054456;28;19916;-81
2021/04/06 07:09:43;;;;;;;;;;;23.10;99.90;;;;;;5053556;28;19916;-81
2021/04/06 07:12:12;;;;;;;;;;;23.10;99.90;;;;;;5053883;28;19935;-81
2021/04/06 07:14:40;;;;;;;;;;;23.10;99.90;;;;;;5069384;28;19931;-79
2021/04/06 07:17:08;;;;;;;;;;;23.00;99.90;;;;;;5068655;28;20260;-81
2021/04/06 07:19:37;;;;;;;;;;;23.00;99.90;;;;;;5053640;28;20000;-79
2021/04/06 07:22:04;;;;;;;;;;;22.90;99.90;;;;;;5053574;28;19966;-80
2021/04/06 07:24:36;;;;;;;;;;;22.90;99.90;;;;;;5053284;28;19909;-80
2021/04/06 07:27:06;;;;;;;;;;;22.90;99.90;;;;;;5053631;28;19915;-80
2021/04/06 07:29:33;;;;;;;;;;;22.80;99.90;;;;;;5053194;28;19917;-82
2021/04/06 07:32:01;;;;;;;;;;;22.70;99.90;;;;;;5053272;28;19908;-80
2021/04/06 07:34:29;;;;;;;;;;;22.70;99.90;;;;;;5053060;28;20418;-79
2021/04/06 07:36:56;;;;;;;;;;;22.70;99.90;;;;;;5053505;28;19971;-82
2021/04/06 07:39:24;;;;;;;;;;;22.70;99.90;;;;;;5053204;28;19913;-81
2021/04/06 07:41:51;;;;;;;;;;;22.60;99.90;;;;;;5050791;28;19928;-81
2021/04/06 07:44:18;;;;;;;;;;;22.60;99.90;;;;;;5051730;28;20294;-79
2021/04/06 07:46:46;;;;;;;;;;;22.60;99.90;;;;;;5051102;28;20352;-80
2021/04/06 07:49:21;;;;;;;;;;;22.50;99.90;;;;;;5051264;28;20299;-80
2021/04/06 07:51:48;;;;;;;;;;;22.60;99.90;;;;;;5051006;28;19913;-80
2021/04/06 07:54:17;;;;;;;;;;;22.60;99.90;;;;;;5050558;28;19913;-82
2021/04/06 07:56:44;;;;;;;;;;;22.60;99.90;;;;;;5050958;28;19913;-80
2021/04/06 07:59:20;;;;;;;;;;;22.60;99.90;;;;;;5050847;28;20415;-81
2021/04/06 08:01:50;;;;;;;;;;;22.50;99.90;;;;;;5050740;28;19917;-79
2021/04/06 08:04:17;;;;;;;;;;;22.50;99.90;;;;;;5050654;28;20390;-80
2021/04/06 08:06:51;;;;;;;;;;;22.50;99.90;;;;;;5050259;28;20299;-80
2021/04/06 08:09:35;;;;;;;;;;;22.50;99.90;;;;;;5050842;28;19916;-81
2021/04/06 08:12:06;;;;;;;;;;;22.50;99.90;;;;;;5050827;28;19908;-80
2021/04/06 08:14:37;;;;;;;;;;;22.50;99.90;;;;;;5050571;28;19931;-80
2021/04/06 08:17:22;;;;;;;;;;;22.50;99.90;;;;;;5050852;28;19913;-81
2021/04/06 08:19:49;;;;;;;;;;;22.40;99.90;;;;;;5050345;28;19924;-81
2021/04/06 08:22:20;;;;;;;;;;;22.50;99.90;;;;;;5050572;28;19967;-81
2021/04/06 08:24:46;;;;;;;;;;;22.40;99.90;;;;;;5051124;28;19913;-82
2021/04/06 08:27:31;;;;;;;;;;;22.40;99.90;;;;;;5054403;28;20338;-82
2021/04/06 08:30:13;;;;;;;;;;;22.50;99.90;;;;;;5054523;28;20033;-81
2021/04/06 08:32:39;;;;;;;;;;;22.50;99.90;;;;;;5054090;28;20391;-81
2021/04/06 08:35:06;;;;;;;;;;;22.40;99.90;;;;;;5054419;28;19913;-82
2021/04/06 08:37:35;;;;;;;;;;;22.40;99.90;;;;;;5054241;28;20549;-81
2021/04/06 08:40:06;;;;;;;;;;;22.40;99.90;;;;;;5054153;28;19939;-81
2021/04/06 08:42:34;;;;;;;;;;;22.40;99.90;;;;;;5054140;28;19950;-81
2021/04/06 08:45:01;;;;;;;;;;;22.40;99.90;;;;;;5054072;28;19970;-80
2021/04/06 08:47:41;;;;;;;;;;;22.40;99.90;;;;;;5054065;28;19916;-80
2021/04/06 08:50:09;;;;;;;;;;;22.30;99.90;;;;;;5053933;28;19966;-81
2021/04/06 08:52:36;;;;;;;;;;;22.40;99.90;;;;;;5053427;28;19909;-82
2021/04/06 08:55:06;;;;;;;;;;;22.40;99.90;;;;;;5053802;28;20351;-81
2021/04/06 08:57:33;;;;;;;;;;;22.30;99.90;;;;;;5062896;28;19916;-81
2021/04/06 09:00:06;;;;;;;;;;;22.30;99.90;;;;;;5072952;28;19901;-81
2021/04/06 09:02:33;;;;;;;;;;;22.30;99.90;;;;;;5075940;28;19897;-80
2021/04/06 09:04:59;;;;;;;;;;;22.30;99.90;;;;;;5075623;28;19909;-82
2021/04/06 09:07:44;;;;;;;;;;;22.30;99.90;;;;;;5075755;28;19909;-81
2021/04/06 09:10:12;;;;;;;;;;;22.30;99.90;;;;;;5073448;28;19909;-80
2021/04/06 09:12:43;;;;;;;;;;;22.30;99.90;;;;;;5063806;28;19908;-80
2021/04/06 09:15:11;;;;;;;;;;;22.30;99.90;;;;;;5056411;28;19909;-80
2021/04/06 09:17:39;;;;;;;;;;;22.30;99.90;;;;;;5056121;28;19951;-81
2021/04/06 09:20:13;;;;;;;;;;;22.30;99.90;;;;;;5056218;28;20295;-81
2021/04/06 09:22:41;;;;;;;;;;;22.30;99.90;;;;;;5056438;28;19916;-81
2021/04/06 09:25:15;;;;;;;;;;;22.20;99.90;;;;;;5057111;28;19912;-81
2021/04/06 09:27:57;;;;;;;;;;;22.30;99.90;;;;;;5055680;28;19909;-81
2021/04/06 09:30:32;;;;;;;;;;;22.30;99.90;;;;;;5055218;28;19925;-81
2021/04/06 09:33:00;;;;;;;;;;;22.20;99.90;;;;;;5055379;28;19916;-79
2021/04/06 09:35:28;;;;;;;;;;;22.20;99.90;;;;;;5055419;28;20007;-81
2021/04/06 09:37:55;;;;;;;;;;;22.20;99.90;;;;;;5053952;28;19913;-81
2021/04/06 09:40:28;;;;;;;;;;;22.20;99.90;;;;;;5055182;28;19924;-81
2021/04/06 09:42:55;;;;;;;;;;;22.20;99.90;;;;;;5055206;28;19913;-81
2021/04/06 09:45:21;;;;;;;;;;;22.10;99.90;;;;;;5055144;28;20434;-82
2021/04/06 09:47:48;;;;;;;;;;;22.10;99.90;;;;;;5055159;28;19996;-80
2021/04/06 09:50:15;;;;;;;;;;;22.10;99.90;;;;;;5055038;28;19917;-81
2021/04/06 09:52:41;;;;;;;;;;;22.10;99.90;;;;;;5054558;28;20001;-81
2021/04/06 09:55:09;;;;;;;;;;;22.10;99.90;;;;;;5054769;28;20360;-81
2021/04/06 09:57:41;;;;;;;;;;;22.20;99.90;;;;;;5054848;28;20275;-80
2021/04/06 10:00:13;;;;;;;;;;;22.20;99.90;;;;;;5054864;28;20007;-80
2021/04/06 10:02:42;;;;;;;;;;;22.20;99.90;;;;;;5054615;28;19920;-80
2021/04/06 10:05:23;;;;;;;;;;;22.20;99.90;;;;;;5054750;28;19971;-80
2021/04/06 10:07:50;;;;;;;;;;;22.20;99.90;;;;;;5054616;28;19909;-81
2021/04/06 10:10:19;;;;;;;;;;;22.20;99.90;;;;;;5054562;28;19916;-80
2021/04/06 10:12:46;;;;;;;;;;;22.20;99.90;;;;;;5054345;28;19928;-79
2021/04/06 10:15:17;;;;;;;;;;;22.30;99.90;;;;;;5054473;28;20376;-80
2021/04/06 10:17:43;;;;;;;;;;;22.20;99.90;;;;;;5054478;28;20023;-79
2021/04/06 10:20:15;;;;;;;;;;;22.20;99.90;;;;;;5054408;28;19917;-79
2021/04/06 10:22:54;;;;;;;;;;;22.10;99.90;;;;;;5053953;28;19944;-80
2021/04/06 10:25:25;;;;;;;;;;;22.10;99.90;;;;;;5054497;28;20359;-79
2021/04/06 10:27:54;;;;;;;;;;;22.10;99.90;;;;;;5054213;28;19976;-80
2021/04/06 10:30:26;;;;;;;;;;;22.10;99.90;;;;;;5053990;28;20350;-79
2021/04/06 10:33:02;;;;;;;;;;;22.00;99.90;;;;;;5054381;28;19908;-80
2021/04/06 10:35:30;;;;;;;;;;;22.10;99.90;;;;;;5054332;28;20004;-79
2021/04/06 10:37:58;;;;;;;;;;;22.00;99.90;;;;;;5053898;28;19954;-79
2021/04/06 10:40:34;;;;;;;;;;;22.00;99.90;;;;;;5054014;28;19960;-80
2021/04/06 10:43:02;;;;;;;;;;;22.00;99.90;;;;;;5053948;28;19995;-80
2021/04/06 10:45:30;;;;;;;;;;;21.90;99.90;;;;;;5053923;28;20359;-80
2021/04/06 10:48:05;;;;;;;;;;;21.90;99.90;;;;;;5053910;28;20027;-81
2021/04/06 10:50:33;;;;;;;;;;;21.90;99.90;;;;;;5053627;28;19992;-80
2021/04/06 10:52:59;;;;;;;;;;;21.90;99.90;;;;;;5053488;28;19908;-80
2021/04/06 10:55:34;;;;;;;;;;;21.90;99.90;;;;;;5053838;28;19916;-79
2021/04/06 10:58:01;;;;;;;;;;;22.00;99.90;;;;;;5053858;28;19909;-80
2021/04/06 11:00:29;;;;;;;;;;;21.90;99.90;;;;;;5053517;28;19919;-80
2021/04/06 11:03:28;;;;;;;;;;;21.90;99.90;;;;;;5053675;28;19913;-80
2021/04/06 11:05:55;;;;;;;;;;;21.90;99.90;;;;;;5063076;28;19913;-79
2021/04/06 11:08:26;;;;;;;;;;;22.00;99.90;;;;;;5053458;28;19915;-80
2021/04/06 11:10:56;;;;;;;;;;;21.90;99.90;;;;;;5053644;28;20059;-81
2021/04/06 11:13:23;;;;;;;;;;;22.00;99.90;;;;;;5053689;28;19952;-81
2021/04/06 11:15:50;;;;;;;;;;;22.00;99.90;;;;;;5053497;28;20398;-80
2021/04/06 11:18:17;;;;;;;;;;;22.00;99.90;;;;;;5053560;28;19908;-80
2021/04/06 11:20:43;;;;;;;;;;;22.00;99.90;;;;;;5053273;28;20006;-80
2021/04/06 11:23:10;;;;;;;;;;;22.00;99.90;;;;;;5053234;28;19913;-80
2021/04/06 11:25:37;;;;;;;;;;;21.90;99.90;;;;;;5054527;28;19909;-80
2021/04/06 11:28:03;;;;;;;;;;;21.90;99.90;;;;;;5053619;28;20414;-80
2021/04/06 11:30:35;;;;;;;;;;;21.90;99.90;;;;;;5053088;28;19975;-80
2021/04/06 11:33:03;;;;;;;;;;;21.90;99.90;;;;;;5051957;28;19909;-80
2021/04/06 11:35:30;;;;;;;;;;;21.90;99.90;;;;;;5053192;28;19963;-79
2021/04/06 11:37:57;;;;;;;;;;;21.80;99.90;;;;;;5053127;28;20283;-79
2021/04/06 11:40:24;;;;;;;;;;;21.80;99.90;;;;;;5053086;28;20012;-80
2021/04/06 11:42:52;;;;;;;;;;;21.80;99.90;;;;;;5053078;28;19948;-80
2021/04/06 11:45:22;;;;;;;;;;;21.80;99.90;;;;;;5052992;28;19979;-81
2021/04/06 11:47:55;;;;;;;;;;;21.70;99.90;;;;;;5053066;28;19909;-79
2021/04/06 11:50:22;;;;;;;;;;;21.70;99.90;;;;;;5053141;28;19915;-79
2021/04/06 11:52:49;;;;;;;;;;;21.70;99.90;;;;;;5052667;28;19943;-81
2021/04/06 11:55:17;;;;;;;;;;;21.60;99.90;;;;;;5053006;28;19953;-80
2021/04/06 11:57:44;;;;;;;;;;;21.60;99.90;;;;;;5052952;28;19916;-80
2021/04/06 12:00:11;;;;;;;;;;;21.50;99.90;;;;;;5054171;28;20275;-80
2021/04/06 12:02:38;;;;;;;;;;;21.50;99.90;;;;;;5056885;28;19916;-80
2021/04/06 12:05:04;;;;;;;;;;;21.50;99.90;;;;;;5056876;28;19935;-80
2021/04/06 12:07:31;;;;;;;;;;;21.40;99.90;;;;;;5056979;28;20201;-80
2021/04/06 12:10:00;;;;;;;;;;;21.40;99.90;;;;;;5056793;28;19932;-81
2021/04/06 12:12:27;;;;;;;;;;;21.40;99.90;;;;;;5056595;28;20003;-81
2021/04/06 12:14:54;;;;;;;;;;;21.40;99.90;;;;;;5056783;28;20283;-80
2021/04/06 12:17:21;;;;;;;;;;;21.30;99.90;;;;;;5056664;28;19909;-80
2021/04/06 12:19:48;;;;;;;;;;;21.30;99.90;;;;;;5056648;28;19944;-81
2021/04/06 12:22:14;;;;;;;;;;;21.30;99.90;;;;;;5056354;28;19991;-80
2021/04/06 12:24:41;;;;;;;;;;;21.30;99.90;;;;;;5056630;28;19930;-79
2021/04/06 12:27:08;;;;;;;;;;;21.20;99.90;;;;;;5056828;28;19962;-81
2021/04/06 12:29:34;;;;;;;;;;;21.20;99.90;;;;;;5056375;28;19961;-78
2021/04/06 12:32:01;;;;;;;;;;;21.20;99.90;;;;;;5056547;28;19971;-79
2021/04/06 12:34:27;;;;;;;;;;;21.20;99.90;;;;;;5056221;28;19908;-79
2021/04/06 12:36:54;;;;;;;;;;;21.20;99.90;;;;;;5056262;28;19908;-79
2021/04/06 12:39:21;;;;;;;;;;;21.20;99.90;;;;;;5056383;28;19912;-80
2021/04/06 12:41:47;;;;;;;;;;;21.20;99.90;;;;;;5056199;28;19923;-80
2021/04/06 12:44:14;;;;;;;;;;;21.20;99.90;;;;;;5056508;28;19916;-80
2021/04/06 12:46:41;;;;;;;;;;;21.20;99.90;;;;;;5054727;28;19916;-80
2021/04/06 12:49:07;;;;;;;;;;;21.20;99.90;;;;;;5056189;28;19978;-79
2021/04/06 12:51:34;;;;;;;;;;;21.20;99.90;;;;;;5055963;28;19915;-79
2021/04/06 12:54:01;;;;;;;;;;;21.20;99.90;;;;;;5056163;28;20341;-80
2021/04/06 12:56:27;;;;;;;;;;;21.10;99.90;;;;;;5055956;28;19997;-80
2021/04/06 12:58:54;;;;;;;;;;;21.10;99.90;;;;;;5056094;28;19991;-79
2021/04/06 13:01:21;;;;;;;;;;;21.10;99.90;;;;;;5055975;28;20369;-80
2021/04/06 13:03:47;;;;;;;;;;;21.00;99.90;;;;;;5056100;28;19909;-80
2021/04/06 13:06:14;;;;;;;;;;;21.00;99.90;;;;;;5055814;28;20367;-80
2021/04/06 13:08:41;;;;;;;;;;;21.00;99.90;;;;;;5055861;28;19913;-79
2021/04/06 13:11:07;;;;;;;;;;;20.90;99.90;;;;;;5055786;28;20389;-79
2021/04/06 13:13:34;;;;;;;;;;;20.90;99.90;;;;;;5055863;28;19912;-80
2021/04/06 13:16:01;;;;;;;;;;;21.00;99.90;;;;;;5055773;28;19909;-79
2021/04/06 13:18:29;;;;;;;;;;;21.00;99.90;;;;;;5055368;28;19944;-80
2021/04/06 13:20:56;;;;;;;;;;;21.00;99.90;;;;;;5055336;28;19935;-79
2021/04/06 13:23:22;;;;;;;;;;;21.00;99.90;;;;;;5055511;28;20355;-80
2021/04/06 13:25:49;;;;;;;;;;;21.00;99.90;;;;;;5055628;28;19908;-80
2021/04/06 13:28:16;;;;;;;;;;;21.00;99.90;;;;;;5055633;28;20372;-80
2021/04/06 13:30:42;;;;;;;;;;;21.00;99.90;;;;;;5055087;28;19970;-79
2021/04/06 13:33:09;;;;;;;;;;;21.10;99.90;;;;;;5055545;28;20417;-79
2021/04/06 13:35:36;;;;;;;;;;;21.00;99.90;;;;;;5055188;28;19963;-80
2021/04/06 13:38:04;;;;;;;;;;;21.00;99.90;;;;;;5070555;28;19963;-79
2021/04/06 13:40:30;;;;;;;;;;;21.00;99.90;;;;;;5055028;28;20371;-79
2021/04/06 13:42:59;;;;;;;;;;;20.90;99.90;;;;;;5055229;28;19979;-80
2021/04/06 13:45:27;;;;;;;;;;;20.90;99.90;;;;;;5055140;28;19915;-79
2021/04/06 13:47:54;;;;;;;;;;;20.90;99.90;;;;;;5055131;28;19909;-80
2021/04/06 13:50:20;;;;;;;;;;;20.90;99.90;;;;;;5055028;28;20420;-79
2021/04/06 13:52:47;;;;;;;;;;;20.90;99.90;;;;;;5054938;28;20388;-79
2021/04/06 13:55:14;;;;;;;;;;;20.90;99.90;;;;;;5054990;28;20288;-79
2021/04/06 13:57:41;;;;;;;;;;;20.80;99.90;;;;;;5054926;28;19956;-79
2021/04/06 14:00:13;;;;;;;;;;;20.80;99.90;;;;;;5054868;28;20339;-80
2021/04/06 14:02:40;;;;;;;;;;;20.70;99.90;;;;;;5054757;28;19917;-80
2021/04/06 14:05:07;;;;;;;;;;;20.70;99.90;;;;;;5054863;28;19909;-80
2021/04/06 14:07:34;;;;;;;;;;;20.80;99.90;;;;;;5054801;28;20335;-79
2021/04/06 14:10:01;;;;;;;;;;;20.70;99.90;;;;;;5054766;28;20050;-79
2021/04/06 14:12:28;;;;;;;;;;;20.70;99.90;;;;;;5054370;28;19916;-80
2021/04/06 14:14:54;;;;;;;;;;;20.80;99.90;;;;;;5054502;28;19909;-80
2021/04/06 14:17:21;;;;;;;;;;;20.70;99.90;;;;;;5054659;28;19916;-80
2021/04/06 14:19:47;;;;;;;;;;;20.70;99.90;;;;;;5054505;28;19909;-79
2021/04/06 14:22:14;;;;;;;;;;;20.70;99.90;;;;;;5053930;28;19924;-80
2021/04/06 14:24:41;;;;;;;;;;;20.70;99.90;;;;;;5053869;28;19909;-79
2021/04/06 14:27:07;;;;;;;;;;;20.70;99.90;;;;;;5054289;28;19984;-80